Time;durP1;ratioP1;P1;durP2;ratioP2;P2;SDS_P1;SDS_P2;PMS_P1;PMS_P2;Temp;Humidity;BMP_temperature;BMP_pressure;BME280_temperature;BME280_humidity;BME280_pressure;Samples;Min_cycle;Max_cycle;Signal;HPM_P1;HPM_P2
2024/01/11 00:00:16;;;;;;;32.83;16.15;;;-5.00;99.90;;;-6.21;100.00;98139.03;4974148;28;20042;-44
2024/01/11 00:02:42;;;;;;;38.22;16.30;;;-5.00;99.90;;;-6.21;100.00;98139.94;4972606;28;20045;-44
2024/01/11 00:05:08;;;;;;;34.92;15.05;;;-5.00;99.90;;;-6.18;100.00;98139.16;4969427;28;20068;-44
2024/01/11 00:07:35;;;;;;;36.70;16.50;;;-5.00;99.90;;;-6.22;100.00;98130.47;4973968;28;20061;-46
2024/01/11 00:10:02;;;;;;;36.05;15.50;;;-5.00;99.90;;;-6.19;100.00;98137.41;4971213;28;20061;-46
2024/01/11 00:12:28;;;;;;;41.95;17.65;;;-5.00;99.90;;;-6.17;100.00;98138.38;4972091;28;20421;-46
2024/01/11 00:14:53;;;;;;;37.85;15.73;;;-5.00;99.90;;;-6.20;100.00;98131.38;4966584;28;20046;-44
2024/01/11 00:17:19;;;;;;;36.78;16.02;;;-5.00;99.90;;;-6.15;100.00;98135.03;4965991;28;20064;-44
2024/01/11 00:19:45;;;;;;;35.50;16.55;;;-5.00;99.90;;;-6.22;100.00;98127.88;4973210;28;20804;-46
2024/01/11 00:22:11;;;;;;;37.80;15.60;;;-4.90;99.90;;;-6.17;100.00;98143.50;4971926;28;20034;-44
2024/01/11 00:24:36;;;;;;;40.83;17.20;;;-5.00;99.90;;;-6.17;100.00;98143.50;4975771;28;20030;-44
2024/01/11 00:27:02;;;;;;;43.35;17.70;;;-5.00;99.90;;;-6.19;100.00;98140.88;4974006;28;20026;-47
2024/01/11 00:29:28;;;;;;;36.05;16.00;;;-5.00;99.90;;;-6.19;100.00;98152.78;4975257;28;20041;-45
2024/01/11 00:31:54;;;;;;;35.22;15.60;;;-5.00;99.90;;;-6.20;100.00;98149.38;4973613;28;20495;-45
2024/01/11 00:34:21;;;;;;;34.95;15.10;;;-5.00;99.90;;;-6.19;100.00;98150.22;4975397;28;20045;-45
2024/01/11 00:36:47;;;;;;;39.92;16.02;;;-5.00;99.90;;;-6.30;100.00;98133.53;4972466;28;20751;-47
2024/01/11 00:39:13;;;;;;;43.47;17.83;;;-5.00;99.90;;;-6.21;100.00;98141.59;4969890;28;20744;-45
2024/01/11 00:41:38;;;;;;;39.85;16.58;;;-5.00;99.90;;;-6.21;100.00;98146.72;4968769;28;20034;-45
2024/01/11 00:44:04;;;;;;;39.65;17.02;;;-5.00;99.90;;;-6.17;100.00;98146.94;4972988;28;20026;-45
2024/01/11 00:46:30;;;;;;;35.00;15.93;;;-5.00;99.90;;;-6.15;100.00;98149.56;4969762;28;20088;-45
2024/01/11 00:48:55;;;;;;;38.08;16.52;;;-5.00;99.90;;;-6.17;100.00;98151.19;4972352;28;20111;-45
2024/01/11 00:51:21;;;;;;;40.83;17.10;;;-5.00;99.90;;;-6.16;100.00;98145.22;4971820;28;20433;-45
2024/01/11 00:53:47;;;;;;;38.83;17.42;;;-5.00;99.90;;;-6.15;100.00;98152.13;4972769;28;20495;-46
2024/01/11 00:56:17;;;;;;;39.47;16.40;;;-5.00;99.90;;;-6.18;100.00;98137.47;4972388;28;20150;-44
2024/01/11 00:58:43;;;;;;;39.40;16.17;;;-5.00;99.90;;;-6.21;100.00;98144.16;4973450;28;20041;-44
2024/01/11 01:01:10;;;;;;;36.67;16.58;;;-5.00;99.90;;;-6.27;100.00;98142.22;4973540;28;20030;-45
2024/01/11 01:03:35;;;;;;;36.00;17.52;;;-5.00;99.90;;;-6.32;100.00;98150.56;4972830;28;20084;-45
2024/01/11 01:06:02;;;;;;;36.72;16.50;;;-5.10;99.90;;;-6.40;100.00;98148.56;4964773;28;20035;-43
2024/01/11 01:08:28;;;;;;;40.22;16.88;;;-5.10;99.90;;;-6.42;100.00;98154.44;4969449;28;20277;-45
2024/01/11 01:10:54;;;;;;;33.60;14.85;;;-5.20;99.90;;;-6.43;100.00;98156.13;4973208;28;20030;-44
2024/01/11 01:13:20;;;;;;;43.92;16.58;;;-5.20;99.90;;;-6.46;100.00;98156.00;4972836;28;20026;-45
2024/01/11 01:15:45;;;;;;;36.33;15.95;;;-5.30;99.90;;;-6.49;100.00;98158.44;4969603;28;20034;-45
2024/01/11 01:18:11;;;;;;;38.00;16.90;;;-5.30;99.90;;;-6.49;100.00;98153.31;4969704;28;20039;-45
2024/01/11 01:20:37;;;;;;;37.00;16.80;;;-5.20;99.90;;;-6.45;100.00;98139.78;4970189;28;20426;-45
2024/01/11 01:23:03;;;;;;;38.78;18.08;;;-5.20;99.90;;;-6.43;100.00;98139.84;4970200;28;20481;-46
2024/01/11 01:25:28;;;;;;;38.88;16.85;;;-5.20;99.90;;;-6.35;100.00;98148.75;4974046;28;20495;-46
2024/01/11 01:27:55;;;;;;;40.53;16.60;;;-5.20;99.90;;;-6.37;100.00;98141.00;4971021;28;20085;-44
2024/01/11 01:30:23;;;;;;;40.65;17.02;;;-5.20;99.90;;;-6.38;100.00;98148.63;4969002;28;20458;-45
2024/01/11 01:32:48;;;;;;;40.63;16.80;;;-5.20;99.90;;;-6.40;100.00;98152.81;4971002;28;20042;-45
2024/01/11 01:35:14;;;;;;;39.40;17.52;;;-5.20;99.90;;;-6.39;100.00;98162.25;4967913;28;20914;-44
2024/01/11 01:37:40;;;;;;;35.50;16.27;;;-5.20;99.90;;;-6.44;100.00;98144.09;4971825;28;20116;-46
2024/01/11 01:40:07;;;;;;;39.63;17.17;;;-5.20;99.90;;;-6.42;100.00;98155.31;4968801;28;20675;-45
2024/01/11 01:42:33;;;;;;;38.25;16.35;;;-5.20;99.90;;;-6.45;100.00;98162.00;4971335;28;20076;-45
2024/01/11 01:44:59;;;;;;;37.53;16.38;;;-5.20;99.90;;;-6.49;100.00;98161.00;4968441;28;20034;-45
2024/01/11 01:47:27;;;;;;;41.05;16.42;;;-5.30;99.90;;;-6.52;100.00;98173.69;4972930;28;20124;-45
2024/01/11 01:49:54;;;;;;;43.53;16.27;;;-5.30;99.90;;;-6.56;100.00;98179.53;4969860;28;20211;-45
2024/01/11 01:52:21;;;;;;;43.10;17.42;;;-5.30;99.90;;;-6.60;100.00;98181.06;4979169;28;20026;-45
2024/01/11 01:54:49;;;;;;;35.83;16.58;;;-5.40;99.90;;;-6.66;100.00;98183.38;4971825;28;20318;-45
2024/01/11 01:57:16;;;;;;;37.78;16.77;;;-5.40;99.90;;;-6.71;100.00;98182.31;4959606;28;20034;-45
2024/01/11 01:59:43;;;;;;;37.47;16.60;;;-5.50;99.90;;;-6.69;100.00;98192.63;4971514;28;20192;-46
2024/01/11 02:02:10;;;;;;;36.78;17.88;;;-5.50;99.90;;;-6.74;100.00;98188.16;4969480;28;20065;-45
2024/01/11 02:04:36;;;;;;;39.28;16.52;;;-5.50;99.90;;;-6.85;100.00;98181.69;4970793;28;20230;-44
2024/01/11 02:07:02;;;;;;;35.83;16.63;;;-5.50;99.90;;;-6.85;100.00;98184.28;4970880;28;20113;-45
2024/01/11 02:09:29;;;;;;;42.15;16.42;;;-5.60;99.90;;;-6.88;100.00;98184.13;4970386;28;20415;-46
2024/01/11 02:11:55;;;;;;;38.20;17.10;;;-5.70;99.90;;;-6.88;100.00;98176.44;4970916;28;20045;-45
2024/01/11 02:14:21;;;;;;;37.08;16.73;;;-5.60;99.90;;;-6.85;100.00;98183.41;4964216;28;20618;-44
2024/01/11 02:16:46;;;;;;;38.38;16.83;;;-5.60;99.90;;;-6.85;100.00;98179.13;4967108;28;20038;-45
2024/01/11 02:19:19;;;;;;;37.22;16.10;;;-5.60;99.90;;;-6.85;100.00;98181.69;4967801;28;20423;-45
2024/01/11 02:21:48;;;;;;;38.58;15.88;;;-5.60;99.90;;;-6.82;100.00;98178.38;4969296;28;20058;-45
2024/01/11 02:24:14;;;;;;;33.60;15.63;;;-5.60;99.90;;;-6.86;100.00;98179.06;4966663;28;20026;-45
2024/01/11 02:27:00;;;;;;;37.38;16.83;;;-5.60;99.90;;;-6.86;100.00;98179.06;4969175;28;20043;-46
2024/01/11 02:29:26;;;;;;;44.45;16.73;;;-5.60;99.90;;;-7.00;100.00;98160.50;4969019;28;20399;-45
2024/01/11 02:31:52;;;;;;;44.33;16.88;;;-5.60;99.90;;;-6.91;100.00;98184.88;4965535;28;20037;-44
2024/01/11 02:34:18;;;;;;;35.15;15.98;;;-5.60;99.90;;;-6.89;100.00;98184.94;4970749;28;20046;-45
2024/01/11 02:36:45;;;;;;;39.38;15.93;;;-5.60;99.90;;;-6.92;100.00;98183.13;4966965;28;20372;-45
2024/01/11 02:39:12;;;;;;;41.83;16.63;;;-5.70;99.90;;;-6.91;100.00;98187.44;4968902;28;20624;-44
2024/01/11 02:41:37;;;;;;;41.20;16.38;;;-5.70;99.90;;;-6.94;100.00;98189.00;4968749;28;21515;-45
2024/01/11 02:44:03;;;;;;;41.33;16.70;;;-5.70;99.90;;;-6.95;100.00;98189.78;4969024;28;20585;-45
2024/01/11 02:46:30;;;;;;;40.22;16.67;;;-5.70;99.90;;;-6.98;100.00;98192.22;4955817;28;20142;-46
2024/01/11 02:48:56;;;;;;;39.25;16.73;;;-5.70;99.90;;;-6.98;100.00;98194.78;4969359;28;20499;-45
2024/01/11 02:51:21;;;;;;;37.20;15.45;;;-5.70;99.90;;;-6.98;100.00;98193.13;4967386;28;20041;-45
2024/01/11 02:53:47;;;;;;;33.55;15.43;;;-5.70;99.90;;;-6.96;100.00;98188.06;4966786;28;20030;-46
2024/01/11 02:56:13;;;;;;;39.20;17.20;;;-5.80;99.90;;;-6.98;100.00;98194.78;4968136;28;20093;-45
2024/01/11 02:58:38;;;;;;;37.08;16.73;;;-5.70;99.90;;;-7.02;100.00;98183.50;4968222;28;20050;-45
2024/01/11 03:01:04;;;;;;;32.83;16.27;;;-5.80;99.90;;;-7.03;100.00;98180.88;4967402;28;20034;-45
2024/01/11 03:03:30;;;;;;;38.90;16.50;;;-5.80;99.90;;;-7.03;100.00;98186.00;4969554;28;20054;-45
2024/01/11 03:05:55;;;;;;;40.13;17.25;;;-5.80;99.90;;;-7.05;100.00;98165.44;4968787;28;20050;-43
2024/01/11 03:08:21;;;;;;;38.88;17.08;;;-5.80;99.90;;;-6.98;100.00;98170.03;4970086;28;20034;-45
2024/01/11 03:10:47;;;;;;;38.97;15.45;;;-5.70;99.90;;;-7.06;100.00;98155.97;4969719;28;20042;-44
2024/01/11 03:13:12;;;;;;;39.22;16.85;;;-5.70;99.90;;;-6.97;100.00;98158.06;4958328;28;20049;-44
2024/01/11 03:15:38;;;;;;;41.53;16.98;;;-5.70;99.90;;;-6.97;100.00;98165.78;4960250;28;26712;-44
2024/01/11 03:18:04;;;;;;;39.40;17.52;;;-5.80;99.90;;;-6.99;100.00;98159.69;4961391;28;20448;-44
2024/01/11 03:20:30;;;;;;;43.60;18.17;;;-5.70;99.90;;;-6.99;100.00;98159.69;4965520;28;20038;-44
2024/01/11 03:22:56;;;;;;;40.33;17.00;;;-5.70;99.90;;;-7.02;100.00;98149.31;4968045;28;20487;-44
2024/01/11 03:25:22;;;;;;;41.75;17.65;;;-5.70;99.90;;;-6.98;100.00;98166.56;4966853;28;20022;-44
2024/01/11 03:27:47;;;;;;;40.60;17.92;;;-5.70;99.90;;;-7.01;100.00;98163.91;4967211;28;20034;-43
2024/01/11 03:30:13;;;;;;;40.53;17.20;;;-5.80;99.90;;;-7.06;100.00;98163.69;4963227;28;20034;-44
2024/01/11 03:32:39;;;;;;;33.83;15.32;;;-5.80;99.90;;;-7.06;100.00;98161.13;4971627;28;20435;-45
2024/01/11 03:35:08;;;;;;;42.38;16.73;;;-5.80;99.90;;;-7.04;100.00;98159.50;4971276;28;20039;-43
2024/01/11 03:37:35;;;;;;;45.80;17.60;;;-5.80;99.90;;;-7.10;100.00;98152.41;4987563;28;20034;-45
2024/01/11 03:40:02;;;;;;;38.70;17.67;;;-5.80;99.90;;;-7.16;100.00;98136.75;4971197;28;20044;-45
2024/01/11 03:42:28;;;;;;;40.90;17.15;;;-5.80;99.90;;;-7.06;100.00;98162.81;4972912;28;20030;-44
2024/01/11 03:44:54;;;;;;;39.63;17.85;;;-5.80;99.90;;;-7.07;100.00;98153.34;4971360;28;20026;-43
2024/01/11 03:47:19;;;;;;;41.13;17.00;;;-5.90;99.90;;;-7.10;100.00;98161.78;4963464;28;20041;-45
2024/01/11 03:49:45;;;;;;;35.58;16.05;;;-5.90;99.90;;;-7.11;100.00;98155.75;4971659;28;20051;-45
2024/01/11 03:52:11;;;;;;;37.63;15.93;;;-5.90;99.90;;;-7.13;100.00;98164.22;4969405;28;20046;-45
2024/01/11 03:54:36;;;;;;;42.25;17.20;;;-5.90;99.90;;;-7.13;100.00;98170.22;4970307;28;20061;-45
2024/01/11 03:57:02;;;;;;;36.75;16.77;;;-5.80;99.90;;;-7.16;100.00;98164.06;4972222;28;20043;-45
2024/01/11 03:59:28;;;;;;;42.40;17.67;;;-5.90;99.90;;;-7.18;100.00;98151.19;4973635;28;20503;-44
2024/01/11 04:01:55;;;;;;;34.47;15.93;;;-5.90;99.90;;;-7.20;100.00;98157.06;4966740;28;20033;-45
2024/01/11 04:04:20;;;;;;;46.65;16.95;;;-5.90;99.90;;;-7.22;100.00;98156.97;4965062;28;20578;-44
2024/01/11 04:06:46;;;;;;;37.47;16.67;;;-6.00;99.90;;;-7.25;100.00;98150.84;4974004;28;20030;-45
2024/01/11 04:09:12;;;;;;;44.30;17.73;;;-6.00;99.90;;;-7.24;100.00;98148.34;4967753;28;20038;-44
2024/01/11 04:11:37;;;;;;;40.30;16.70;;;-6.00;99.90;;;-7.50;100.00;98104.50;4971600;28;20458;-44
2024/01/11 04:14:03;;;;;;;39.42;17.42;;;-6.00;99.90;;;-7.31;100.00;98147.19;4971448;28;20403;-44
2024/01/11 04:16:29;;;;;;;36.53;17.20;;;-6.00;99.90;;;-7.34;100.00;98134.25;4971944;28;20473;-44
2024/01/11 04:18:54;;;;;;;35.85;16.00;;;-6.00;99.90;;;-7.25;100.00;98149.16;4973920;28;20042;-45
2024/01/11 04:21:30;;;;;;;41.65;17.35;;;-6.00;99.90;;;-7.23;100.00;98152.69;4970586;28;20137;-44
2024/01/11 04:23:56;;;;;;;39.97;16.17;;;-6.00;99.90;;;-7.25;100.00;98151.72;4969252;28;20030;-44
2024/01/11 04:26:22;;;;;;;39.25;16.48;;;-6.00;99.90;;;-7.23;100.00;98155.25;4965627;28;20102;-44
2024/01/11 04:28:49;;;;;;;37.90;16.52;;;-6.00;99.90;;;-7.29;100.00;98140.44;4969953;28;20035;-44
2024/01/11 04:31:18;;;;;;;41.90;18.23;;;-6.00;99.90;;;-7.33;100.00;98147.94;4993575;23;20049;-36
2024/01/11 04:33:45;;;;;;;37.28;16.38;;;-6.00;99.90;;;-7.29;100.00;98149.81;4992428;28;20069;-37
2024/01/11 04:36:11;;;;;;;40.53;17.55;;;-6.00;99.90;;;-7.28;100.00;98149.03;4993694;28;20462;-36
2024/01/11 04:38:37;;;;;;;39.67;16.85;;;-6.00;99.90;;;-7.28;100.00;98143.91;4991405;28;20053;-36
2024/01/11 04:41:09;;;;;;;43.60;16.88;;;-6.00;99.90;;;-7.29;100.00;98137.88;4983067;28;20058;-36
2024/01/11 04:43:38;;;;;;;38.45;17.33;;;-6.00;99.90;;;-7.36;100.00;98129.84;4969153;28;20038;-36
2024/01/11 04:46:04;;;;;;;41.97;17.20;;;-6.00;99.90;;;-7.32;100.00;98135.19;4969326;28;20634;-36
2024/01/11 04:48:29;;;;;;;37.17;16.77;;;-6.00;99.90;;;-7.27;100.00;98148.22;4966099;28;20037;-36
2024/01/11 04:50:55;;;;;;;43.00;16.63;;;-6.00;99.90;;;-7.27;100.00;98148.22;4969884;28;20030;-37
2024/01/11 04:53:21;;;;;;;36.85;16.08;;;-6.00;99.90;;;-7.26;100.00;98143.97;4969478;28;20034;-37
2024/01/11 04:55:47;;;;;;;41.50;16.73;;;-6.00;99.90;;;-7.29;100.00;98140.44;4972473;28;20447;-37
2024/01/11 04:58:15;;;;;;;39.85;16.80;;;-6.00;99.90;;;-7.47;100.00;98110.56;4969034;28;20049;-37
2024/01/11 05:00:41;;;;;;;42.63;17.17;;;-6.00;99.90;;;-7.31;100.00;98144.63;4971064;28;20045;-37
2024/01/11 05:03:06;;;;;;;42.38;17.52;;;-6.00;99.90;;;-7.30;100.00;98145.53;4972733;28;20034;-37
2024/01/11 05:05:32;;;;;;;39.92;17.38;;;-6.10;99.90;;;-7.53;100.00;98106.06;4967086;28;20038;-37
2024/01/11 05:07:58;;;;;;;42.03;17.13;;;-6.10;99.90;;;-7.31;100.00;98148.88;4970646;28;20034;-37
2024/01/11 05:10:23;;;;;;;40.17;16.55;;;-6.10;99.90;;;-7.37;100.00;98138.38;4969230;28;20034;-37
2024/01/11 05:12:49;;;;;;;43.22;16.67;;;-6.10;99.90;;;-7.35;100.00;98159.81;4971154;28;20046;-37
2024/01/11 05:15:15;;;;;;;35.88;15.75;;;-6.10;99.90;;;-7.40;100.00;98159.59;4968846;28;20396;-36
2024/01/11 05:17:42;;;;;;;38.95;16.92;;;-6.10;99.90;;;-7.44;100.00;98150.03;4967381;28;20448;-37
2024/01/11 05:20:08;;;;;;;41.92;17.27;;;-6.10;99.90;;;-7.38;100.00;98162.22;4962294;28;20331;-37
2024/01/11 05:22:34;;;;;;;38.78;16.77;;;-6.10;99.90;;;-7.41;100.00;98160.41;4970618;28;20086;-37
2024/01/11 05:24:59;;;;;;;41.25;17.08;;;-6.10;99.90;;;-7.44;100.00;98164.53;4971301;28;20038;-36
2024/01/11 05:27:25;;;;;;;42.60;16.75;;;-6.10;99.90;;;-7.56;100.00;98139.22;4969877;28;20045;-37
2024/01/11 05:29:51;;;;;;;40.20;16.15;;;-6.10;99.90;;;-7.44;100.00;98155.16;4969977;28;20438;-37
2024/01/11 05:32:16;;;;;;;36.50;16.63;;;-6.10;99.90;;;-7.40;100.00;98171.53;4970784;28;20038;-37
2024/01/11 05:34:42;;;;;;;37.08;16.50;;;-6.10;99.90;;;-7.39;100.00;98170.72;4971663;28;20041;-36
2024/01/11 05:37:08;;;;;;;40.22;16.83;;;-6.10;99.90;;;-7.39;100.00;98175.84;4970085;28;20270;-36
2024/01/11 05:39:33;;;;;;;38.85;16.90;;;-6.10;99.90;;;-7.43;100.00;98179.94;4970018;28;20159;-36
2024/01/11 05:41:59;;;;;;;41.58;17.35;;;-6.10;99.90;;;-7.44;100.00;98180.78;4971843;28;20671;-36
2024/01/11 05:44:25;;;;;;;38.80;17.02;;;-6.10;99.90;;;-7.54;100.00;98173.47;4968610;28;20446;-36
2024/01/11 05:46:50;;;;;;;38.67;17.42;;;-6.20;99.90;;;-7.49;100.00;98185.66;4973313;28;20026;-36
2024/01/11 05:49:16;;;;;;;40.00;17.15;;;-6.10;99.90;;;-7.49;100.00;98184.81;4971671;28;20109;-36
2024/01/11 05:51:42;;;;;;;39.28;16.83;;;-6.20;99.90;;;-7.48;100.00;98191.69;4969116;28;20030;-36
2024/01/11 05:54:07;;;;;;;46.13;18.67;;;-6.20;99.90;;;-7.54;100.00;98184.56;4970068;28;20448;-36
2024/01/11 05:56:33;;;;;;;41.33;17.55;;;-6.20;99.90;;;-7.52;100.00;98189.78;4972768;28;20093;-36
2024/01/11 05:58:59;;;;;;;44.60;18.27;;;-6.20;99.90;;;-7.53;100.00;98196.59;4975465;28;20037;-36
2024/01/11 06:01:25;;;;;;;38.60;16.48;;;-6.20;99.90;;;-7.61;100.00;98186.78;4974213;28;20391;-36
2024/01/11 06:03:50;;;;;;;39.70;17.15;;;-6.20;99.90;;;-7.54;100.00;98206.75;4971199;28;20077;-36
2024/01/11 06:06:16;;;;;;;44.03;17.40;;;-6.20;99.90;;;-7.52;100.00;98217.97;4969550;28;20491;-36
2024/01/11 06:08:43;;;;;;;35.97;16.92;;;-6.20;99.90;;;-7.51;100.00;98214.59;4966385;28;20041;-37
2024/01/11 06:11:09;;;;;;;42.90;17.77;;;-6.10;99.90;;;-7.59;100.00;98206.56;4969281;28;20026;-36
2024/01/11 06:13:35;;;;;;;38.85;16.52;;;-6.20;99.90;;;-7.57;100.00;98204.03;4969337;28;20041;-36
2024/01/11 06:16:01;;;;;;;39.72;17.35;;;-6.30;99.90;;;-7.62;100.00;98203.84;4958351;28;20030;-36
2024/01/11 06:18:26;;;;;;;38.03;16.20;;;-6.20;99.90;;;-7.75;100.00;98176.78;4962274;28;20041;-36
2024/01/11 06:20:52;;;;;;;41.67;17.45;;;-6.20;99.90;;;-7.63;100.00;98196.97;4972033;28;20041;-36
2024/01/11 06:23:19;;;;;;;44.22;18.38;;;-6.20;99.90;;;-7.56;100.00;98205.81;4967729;28;20026;-36
2024/01/11 06:25:46;;;;;;;46.03;17.73;;;-6.30;99.90;;;-7.60;100.00;98203.94;4964374;28;20042;-36
2024/01/11 06:28:12;;;;;;;41.05;17.30;;;-6.30;99.90;;;-7.61;100.00;98203.03;4979689;28;20022;-36
2024/01/11 06:30:37;;;;;;;40.78;16.98;;;-6.30;99.90;;;-7.53;100.00;98200.84;4969644;28;20037;-37
2024/01/11 06:33:03;;;;;;;40.30;17.77;;;-6.30;99.90;;;-7.58;100.00;98192.06;4987165;28;20046;-36
2024/01/11 06:35:29;;;;;;;44.72;17.58;;;-6.30;99.90;;;-7.51;100.00;98206.91;4974082;28;20069;-36
2024/01/11 06:37:55;;;;;;;43.28;16.85;;;-6.30;99.90;;;-7.50;100.00;98209.56;4972962;28;20053;-36
2024/01/11 06:40:20;;;;;;;43.33;17.83;;;-6.30;99.90;;;-7.58;100.00;98194.63;4974804;28;20030;-37
2024/01/11 06:42:46;;;;;;;41.78;18.25;;;-6.20;99.90;;;-7.53;100.00;98195.72;4966735;28;20038;-37
2024/01/11 06:45:12;;;;;;;39.72;17.02;;;-6.20;99.90;;;-7.49;100.00;98213.84;4972122;28;20058;-37
2024/01/11 06:47:37;;;;;;;46.75;17.83;;;-6.20;99.90;;;-7.64;100.00;98184.97;4971249;28;20030;-36
2024/01/11 06:50:03;;;;;;;40.47;16.92;;;-6.20;99.90;;;-7.54;100.00;98201.63;4973396;28;20033;-36
2024/01/11 06:52:29;;;;;;;42.30;17.40;;;-6.30;99.90;;;-7.50;100.00;98217.25;4974074;28;20121;-36
2024/01/11 06:54:55;;;;;;;40.70;18.55;;;-6.20;99.90;;;-7.55;100.00;98215.28;4975617;28;20479;-36
2024/01/11 06:57:20;;;;;;;38.83;16.90;;;-6.30;99.90;;;-7.61;100.00;98208.16;4985152;28;20122;-36
2024/01/11 06:59:46;;;;;;;42.35;16.77;;;-6.30;99.90;;;-7.54;100.00;98217.88;4972393;28;20022;-36
2024/01/11 07:02:12;;;;;;;39.25;17.20;;;-6.30;99.90;;;-7.54;100.00;98220.44;4974083;28;20538;-36
2024/01/11 07:04:38;;;;;;;43.95;17.13;;;-6.30;99.90;;;-7.57;100.00;98221.97;4975208;28;20041;-36
2024/01/11 07:07:04;;;;;;;41.60;17.10;;;-6.30;99.90;;;-7.64;100.00;98218.28;4974823;28;20480;-36
2024/01/11 07:09:30;;;;;;;38.85;16.90;;;-6.30;99.90;;;-7.60;100.00;98232.09;4970888;28;20031;-36
2024/01/11 07:11:55;;;;;;;41.30;16.92;;;-6.30;99.90;;;-7.63;100.00;98231.94;4971909;28;20653;-36
2024/01/11 07:14:21;;;;;;;43.70;17.02;;;-6.30;99.90;;;-7.67;100.00;98228.38;4974406;28;20030;-36
2024/01/11 07:16:47;;;;;;;42.15;17.23;;;-6.30;99.90;;;-7.55;100.00;98248.59;4975368;28;20045;-36
2024/01/11 07:19:12;;;;;;;38.08;16.35;;;-6.30;99.90;;;-7.49;100.00;98249.72;4975343;28;20038;-36
2024/01/11 07:21:38;;;;;;;40.92;17.27;;;-6.20;99.90;;;-7.62;100.00;98203.84;4972581;28;20029;-35
2024/01/11 07:24:04;;;;;;;42.63;17.35;;;-6.20;99.90;;;-7.53;100.00;98227.34;4974541;28;20042;-36
2024/01/11 07:26:30;;;;;;;41.60;16.73;;;-6.20;99.90;;;-7.55;100.00;98217.84;4969618;28;20034;-36
2024/01/11 07:28:56;;;;;;;37.08;16.23;;;-6.20;99.90;;;-7.42;100.00;98237.22;4975145;28;20045;-35
2024/01/11 07:31:22;;;;;;;38.85;17.33;;;-6.10;99.90;;;-7.50;100.00;98231.72;4956112;28;20058;-36
2024/01/11 07:33:47;;;;;;;43.58;17.15;;;-6.10;99.90;;;-7.35;100.00;98252.06;4972539;28;20030;-36
2024/01/11 07:36:13;;;;;;;42.45;17.27;;;-6.10;99.90;;;-7.35;100.00;98244.38;4976801;28;20327;-36
2024/01/11 07:38:39;;;;;;;47.92;18.52;;;-6.10;99.90;;;-7.27;100.00;98266.13;4973459;28;20114;-36
2024/01/11 07:41:05;;;;;;;40.97;17.10;;;-6.00;99.90;;;-7.30;100.00;98269.44;4975493;28;20376;-36
2024/01/11 07:43:34;;;;;;;41.05;17.00;;;-6.00;99.90;;;-7.31;100.00;98271.91;4968270;28;20069;-36
2024/01/11 07:46:05;;;;;;;37.90;16.63;;;-6.00;99.90;;;-7.34;100.00;98264.97;4975140;28;20403;-36
2024/01/11 07:48:31;;;;;;;42.03;18.20;;;-6.00;99.90;;;-7.47;100.00;98238.69;4964986;28;20042;-36
2024/01/11 07:50:59;;;;;;;42.17;17.58;;;-6.00;99.90;;;-7.32;100.00;98267.56;4973904;28;20500;-36
2024/01/11 07:53:25;;;;;;;46.33;18.20;;;-6.00;99.90;;;-7.26;100.00;98265.31;4970000;28;20507;-36
2024/01/11 07:55:51;;;;;;;40.45;17.48;;;-6.00;99.90;;;-7.21;100.00;98279.22;4974009;28;20031;-35
2024/01/11 07:58:17;;;;;;;35.17;15.98;;;-6.00;99.90;;;-7.23;100.00;98283.41;4970949;28;20121;-35
2024/01/11 08:00:43;;;;;;;40.05;17.90;;;-5.90;99.90;;;-7.28;100.00;98277.19;4967514;28;20042;-36
2024/01/11 08:03:09;;;;;;;44.25;17.90;;;-5.90;99.90;;;-7.23;100.00;98298.81;4974220;28;20128;-35
2024/01/11 08:05:35;;;;;;;46.92;19.25;;;-5.90;99.90;;;-7.25;100.00;98299.50;4971356;28;20040;-35
2024/01/11 08:08:03;;;;;;;44.30;18.55;;;-5.80;99.90;;;-7.30;100.00;98287.38;4970173;28;20349;-36
2024/01/11 08:10:30;;;;;;;40.28;17.98;;;-5.80;99.90;;;-7.22;100.00;98309.91;4972341;28;20034;-36
2024/01/11 08:12:56;;;;;;;47.70;18.48;;;-5.80;99.90;;;-7.16;100.00;98307.63;4976367;28;20069;-35
2024/01/11 08:15:21;;;;;;;40.75;18.90;;;-5.80;99.90;;;-7.14;100.00;98313.69;4972114;28;20049;-35
2024/01/11 08:17:48;;;;;;;46.15;19.30;;;-5.80;99.90;;;-7.04;100.00;98321.03;4975915;28;20326;-35
2024/01/11 08:20:14;;;;;;;49.47;19.30;;;-5.80;99.90;;;-7.11;100.00;98314.72;4976239;28;20030;-35
2024/01/11 08:22:42;;;;;;;48.47;19.40;;;-5.70;99.90;;;-7.07;100.00;98326.00;4976751;28;20073;-35
2024/01/11 08:25:09;;;;;;;39.55;16.48;;;-5.70;99.90;;;-7.07;100.00;98327.69;4973369;28;20109;-35
2024/01/11 08:27:35;;;;;;;39.28;18.13;;;-5.70;99.90;;;-6.95;100.00;98335.97;4976854;28;20026;-36
2024/01/11 08:30:01;;;;;;;42.13;17.80;;;-5.60;99.90;;;-6.93;100.00;98335.25;4977022;28;20824;-36
2024/01/11 08:32:27;;;;;;;49.78;18.80;;;-5.60;99.90;;;-6.95;100.00;98331.72;4974001;28;20117;-36
2024/01/11 08:34:52;;;;;;;47.42;18.83;;;-5.60;99.90;;;-6.92;100.00;98336.13;4977525;28;20042;-36
2024/01/11 08:37:18;;;;;;;44.42;18.23;;;-5.60;99.90;;;-6.87;100.00;98329.53;4973645;28;20042;-37
2024/01/11 08:39:46;;;;;;;44.33;18.48;;;-5.50;99.90;;;-6.81;100.00;98337.50;4975442;28;20046;-36
2024/01/11 08:42:12;;;;;;;54.38;19.70;;;-5.50;99.90;;;-6.80;100.00;98339.25;4970706;28;20029;-36
2024/01/11 08:44:42;;;;;;;42.28;17.65;;;-5.50;99.90;;;-6.73;100.00;98335.28;4975668;28;20158;-36
2024/01/11 08:47:09;;;;;;;44.60;18.80;;;-5.40;99.90;;;-6.63;100.00;98346.84;4973091;28;20073;-36
2024/01/11 08:49:39;;;;;;;46.05;18.48;;;-5.30;99.90;;;-6.65;100.00;98315.13;4989057;28;20062;-36
2024/01/11 08:52:05;;;;;;;40.55;18.35;;;-5.30;99.90;;;-6.56;100.00;98312.97;4973833;28;20714;-36
2024/01/11 08:54:34;;;;;;;41.55;18.38;;;-5.20;99.90;;;-6.50;100.00;98310.66;4969823;28;20026;-36
2024/01/11 08:57:01;;;;;;;43.92;18.88;;;-5.10;99.90;;;-6.38;100.00;98328.31;4973924;28;20423;-36
2024/01/11 08:59:27;;;;;;;41.78;18.45;;;-5.10;99.90;;;-6.30;100.00;98323.50;4976318;28;20129;-36
2024/01/11 09:01:53;;;;;;;45.63;18.83;;;-5.00;99.90;;;-6.26;100.00;98333.97;4976491;28;20080;-36
2024/01/11 09:04:18;;;;;;;41.25;18.13;;;-5.00;99.90;;;-6.21;100.00;98327.38;4976041;28;20061;-36
2024/01/11 09:06:45;;;;;;;40.50;17.73;;;-4.90;99.90;;;-6.15;100.00;98329.31;4977757;28;20527;-36
2024/01/11 09:09:13;;;;;;;49.22;20.80;;;-4.90;99.90;;;-6.11;100.00;98325.19;4977518;28;20044;-37
2024/01/11 09:11:40;;;;;;;46.25;19.42;;;-4.80;99.90;;;-6.02;100.00;98333.28;4973269;28;20034;-36
2024/01/11 09:14:07;;;;;;;45.30;19.50;;;-4.80;99.90;;;-6.02;100.00;98333.28;4976827;28;20121;-37
2024/01/11 09:16:33;;;;;;;46.28;19.83;;;-4.70;99.90;;;-5.95;100.00;98345.56;4974923;28;20206;-36
2024/01/11 09:19:01;;;;;;;39.60;17.67;;;-4.70;99.90;;;-5.87;100.00;98345.88;4975247;28;20030;-37
2024/01/11 09:21:27;;;;;;;44.10;19.35;;;-4.60;99.90;;;-5.81;100.00;98333.31;4971290;28;20034;-36
2024/01/11 09:23:53;;;;;;;43.70;19.90;;;-4.60;99.90;;;-5.82;100.00;98336.66;4968717;28;20093;-37
2024/01/11 09:26:18;;;;;;;53.85;21.38;;;-4.50;99.90;;;-5.79;100.00;98331.66;4975359;28;20475;-36
2024/01/11 09:28:45;;;;;;;44.92;20.08;;;-4.50;99.90;;;-5.67;100.00;98344.13;4982830;28;20030;-36
2024/01/11 09:31:11;;;;;;;43.17;19.38;;;-4.40;99.90;;;-5.64;100.00;98352.84;4972432;28;20061;-36
2024/01/11 09:33:38;;;;;;;45.47;19.88;;;-4.40;99.90;;;-5.51;100.00;98361.94;4966763;28;20061;-36
2024/01/11 09:36:04;;;;;;;49.47;21.33;;;-4.30;99.90;;;-5.50;100.00;98353.44;4974531;28;20585;-36
2024/01/11 09:38:30;;;;;;;47.88;20.13;;;-4.20;99.90;;;-5.44;100.00;98352.81;4972202;28;20395;-36
2024/01/11 09:41:11;;;;;;;42.25;20.40;;;-4.20;99.90;;;-5.59;100.00;98327.38;4971245;28;20997;-37
2024/01/11 09:43:36;;;;;;;46.67;21.13;;;-4.20;99.90;;;-5.42;100.00;98356.31;4971561;28;20065;-37
2024/01/11 09:46:06;;;;;;;47.78;21.60;;;-4.20;99.90;;;-5.35;100.00;98366.03;4975371;28;20379;-37
2024/01/11 09:48:37;;;;;;;46.13;21.23;;;-4.10;99.90;;;-5.41;100.00;98368.38;4974832;28;20053;-37
2024/01/11 09:51:04;;;;;;;43.40;18.23;;;-4.10;99.90;;;-5.42;100.00;98361.47;4976487;28;20703;-36
2024/01/11 09:53:32;;;;;;;42.63;19.48;;;-4.10;99.90;;;-5.28;100.00;98368.06;4972014;28;20034;-36
2024/01/11 09:56:01;;;;;;;47.90;21.02;;;-4.00;99.90;;;-5.31;100.00;98357.66;4966049;28;20030;-37